createdAt,value
2018-06-13T00:02:13.249Z,70.26
2018-06-13T00:04:42.606Z,70.24
2018-06-13T00:07:11.941Z,70.33
2018-06-13T00:09:41.296Z,70.30
2018-06-13T00:12:10.606Z,70.39
2018-06-13T00:14:39.960Z,70.62
2018-06-13T00:17:09.304Z,70.48
2018-06-13T00:19:38.666Z,70.74
2018-06-13T00:22:08.022Z,70.21
2018-06-13T00:24:37.897Z,71.08
2018-06-13T00:27:07.172Z,70.40
2018-06-13T00:29:36.560Z,70.56
2018-06-13T00:32:05.911Z,70.26
2018-06-13T00:34:35.753Z,70.65
2018-06-13T00:37:05.217Z,70.68
2018-06-13T00:39:34.525Z,70.50
2018-06-13T00:42:04.233Z,70.72
2018-06-13T00:44:34.008Z,71.56
2018-06-13T00:47:03.377Z,71.47
2018-06-13T00:49:33.133Z,71.32
2018-06-13T00:52:02.949Z,71.75
2018-06-13T00:54:32.292Z,71.31
2018-06-13T00:57:01.691Z,71.64
2018-06-13T00:59:31.052Z,71.12
2018-06-13T01:02:01.209Z,71.30
2018-06-13T01:04:31.448Z,71.80
2018-06-13T01:07:00.782Z,71.54
2018-06-13T01:09:30.155Z,72.20
2018-06-13T01:11:59.833Z,71.82
2018-06-13T01:14:30.437Z,71.78
2018-06-13T01:16:59.790Z,71.30
2018-06-13T01:19:29.148Z,71.17
2018-06-13T01:21:59.429Z,71.36
2018-06-13T01:24:29.493Z,71.93
2018-06-13T01:26:58.830Z,71.33
2018-06-13T01:29:28.501Z,71.46
2018-06-13T01:31:58.219Z,70.97
2018-06-13T01:34:28.429Z,70.60
2018-06-13T01:36:57.734Z,71.27
2018-06-13T01:39:27.091Z,69.61
2018-06-13T01:41:57.127Z,70.36
2018-06-13T01:44:26.462Z,69.71
2018-06-13T01:46:55.792Z,69.62
2018-06-13T01:49:25.543Z,69.44
2018-06-13T01:51:54.933Z,69.32
2018-06-13T01:54:24.309Z,68.62
2018-06-13T01:56:53.621Z,68.33
2018-06-13T01:59:22.981Z,67.63
2018-06-13T02:01:52.332Z,67.51
2018-06-13T02:04:21.691Z,66.45
2018-06-13T02:06:51.256Z,66.62
2018-06-13T02:09:20.841Z,66.31
2018-06-13T02:11:50.984Z,66.35
2018-06-13T02:14:20.310Z,67.14
2018-06-13T02:16:50.157Z,65.97
2018-06-13T02:19:20.373Z,65.51
2018-06-13T02:21:51.989Z,65.21
2018-06-13T02:24:21.307Z,65.86
2018-06-13T02:26:51.073Z,65.50
2018-06-13T02:29:21.321Z,65.62
2018-06-13T02:31:50.883Z,64.95
2018-06-13T02:34:20.225Z,65.35
2018-06-13T02:36:49.732Z,65.37
2018-06-13T02:39:19.697Z,65.29
2018-06-13T02:41:49.332Z,65.39
2018-06-13T02:44:19.079Z,65.28
2018-06-13T02:46:48.883Z,65.63
2018-06-13T02:49:18.213Z,65.52
2018-06-13T02:51:50.585Z,65.52
2018-06-13T02:54:19.928Z,65.72
2018-06-13T02:56:49.248Z,66.18
2018-06-13T02:59:18.548Z,66.15
2018-06-13T03:01:48.746Z,66.27
2018-06-13T03:04:18.064Z,65.62
2018-06-13T03:06:47.390Z,65.70
2018-06-13T03:09:16.757Z,65.90
2018-06-13T03:11:46.127Z,66.02
2018-06-13T03:14:15.448Z,66.25
2018-06-13T03:16:44.780Z,65.76
2018-06-13T03:19:14.593Z,66.01
2018-06-13T03:21:44.214Z,66.04
2018-06-13T03:24:14.866Z,65.76
2018-06-13T03:26:44.630Z,66.20
2018-06-13T03:29:13.994Z,67.27
2018-06-13T03:31:43.792Z,68.77
2018-06-13T03:34:13.348Z,68.51
2018-06-13T03:36:43.109Z,68.31
2018-06-13T03:39:12.417Z,68.80
2018-06-13T03:41:41.765Z,69.07
2018-06-13T03:44:11.885Z,69.64
2018-06-13T03:46:41.617Z,69.13
2018-06-13T03:49:10.937Z,69.39
2018-06-13T03:51:40.260Z,69.62
2018-06-13T03:54:09.648Z,69.56
2018-06-13T03:56:38.957Z,69.93
2018-06-13T03:59:08.941Z,69.68
2018-06-13T04:01:38.642Z,70.21
2018-06-13T04:04:07.989Z,69.79
2018-06-13T04:06:37.776Z,70.09
2018-06-13T04:09:08.267Z,70.22
2018-06-13T04:11:37.867Z,70.17
2018-06-13T04:14:08.109Z,70.71
2018-06-13T04:16:37.460Z,70.98
2018-06-13T04:19:07.102Z,70.73
2018-06-13T04:21:37.627Z,71.01
2018-06-13T04:24:07.637Z,71.50
2018-06-13T04:26:36.968Z,71.59
2018-06-13T04:29:07.457Z,71.57
2018-06-13T04:31:37.459Z,71.62
2018-06-13T04:34:06.961Z,71.36
2018-06-13T04:36:36.310Z,71.60
2018-06-13T04:39:08.627Z,71.58
2018-06-13T04:41:37.969Z,71.04
2018-06-13T04:44:08.496Z,70.51
2018-06-13T04:46:38.200Z,70.72
2018-06-13T04:49:07.941Z,71.03
2018-06-13T04:51:38.112Z,70.55
2018-06-13T04:54:08.397Z,69.90
2018-06-13T04:56:37.752Z,70.18
2018-06-13T04:59:07.367Z,70.04
2018-06-13T05:01:36.709Z,70.20
2018-06-13T05:04:06.356Z,69.96
2018-06-13T05:06:35.717Z,70.25
2018-06-13T05:09:07.664Z,70.50
2018-06-13T05:11:37.343Z,69.53
2018-06-13T05:14:06.957Z,70.82
2018-06-13T05:16:36.309Z,70.82
2018-06-13T05:19:05.982Z,70.68
2018-06-13T05:21:35.581Z,70.74
2018-06-13T05:24:05.833Z,70.79
2018-06-13T05:26:35.623Z,70.18
2018-06-13T05:29:05.345Z,69.82
2018-06-13T05:31:35.070Z,70.27
2018-06-13T05:34:04.402Z,70.33
2018-06-13T05:36:33.750Z,71.06
2018-06-13T05:39:03.176Z,70.98
2018-06-13T05:41:32.576Z,71.11
2018-06-13T05:44:01.906Z,71.11
2018-06-13T05:46:31.974Z,70.97
2018-06-13T05:49:01.309Z,71.07
2018-06-13T05:51:31.362Z,71.10
2018-06-13T05:54:01.026Z,71.35
2018-06-13T05:56:30.771Z,71.25
2018-06-13T05:59:01.219Z,71.06
2018-06-13T06:01:30.695Z,70.97
2018-06-13T06:04:00.031Z,71.27
2018-06-13T06:06:29.675Z,71.36
2018-06-13T06:08:59.027Z,71.31
2018-06-13T06:11:28.365Z,70.84
2018-06-13T06:13:57.719Z,71.04
2018-06-13T06:16:27.045Z,70.54
2018-06-13T06:18:56.445Z,71.04
2018-06-13T06:21:26.600Z,70.95
2018-06-13T06:23:55.906Z,70.47
2018-06-13T06:26:25.645Z,70.81
2018-06-13T06:28:55.290Z,71.60
2018-06-13T06:31:25.829Z,71.17
2018-06-13T06:33:55.224Z,71.68
2018-06-13T06:36:24.839Z,71.69
2018-06-13T06:38:54.541Z,71.58
2018-06-13T06:41:24.263Z,71.50
2018-06-13T06:43:53.584Z,70.88
2018-06-13T06:46:22.933Z,70.57
2018-06-13T06:48:52.262Z,70.29
2018-06-13T06:51:22.829Z,70.52
2018-06-13T06:53:52.152Z,71.00
2018-06-13T06:56:21.544Z,70.45
2018-06-13T06:58:50.865Z,69.48
2018-06-13T07:01:20.221Z,70.44
2018-06-13T07:03:49.633Z,69.77
2018-06-13T07:06:19.426Z,69.29
2018-06-13T07:08:48.740Z,68.76
2018-06-13T07:11:18.488Z,69.39
2018-06-13T07:13:48.103Z,69.61
2018-06-13T07:16:18.090Z,68.82
2018-06-13T07:18:47.703Z,68.82
2018-06-13T07:21:18.218Z,68.73
2018-06-13T07:23:47.512Z,67.97
2018-06-13T07:26:16.853Z,68.92
2018-06-13T07:28:46.160Z,67.37
2018-06-13T07:31:15.468Z,67.79
2018-06-13T07:33:45.074Z,64.92
2018-06-13T07:36:14.996Z,65.55
2018-06-13T07:38:44.304Z,64.79
2018-06-13T07:41:14.635Z,64.42
2018-06-13T07:43:43.945Z,64.18
2018-06-13T07:46:13.643Z,63.32
2018-06-13T07:48:42.969Z,61.34
2018-06-13T07:51:13.360Z,62.69
2018-06-13T07:53:42.998Z,61.26
2018-06-13T07:56:12.438Z,60.44
2018-06-13T07:58:42.492Z,58.87
2018-06-13T08:01:12.133Z,59.12
2018-06-13T08:03:41.455Z,59.70
2018-06-13T08:06:10.789Z,59.89
2018-06-13T08:08:41.184Z,61.37
2018-06-13T08:11:10.756Z,60.51
2018-06-13T08:13:40.672Z,59.43
2018-06-13T08:16:10.673Z,59.44
2018-06-13T08:18:39.972Z,57.97
2018-06-13T08:21:09.320Z,58.15
2018-06-13T08:23:38.734Z,58.63
2018-06-13T08:26:08.068Z,59.47
2018-06-13T08:28:37.407Z,57.47
2018-06-13T08:31:08.449Z,58.68
2018-06-13T08:33:38.202Z,58.73
2018-06-13T08:36:07.537Z,58.38
2018-06-13T08:38:37.185Z,58.13
2018-06-13T08:41:06.972Z,59.08
2018-06-13T08:43:36.701Z,59.53
2018-06-13T08:46:06.088Z,57.95
2018-06-13T08:48:36.039Z,57.82
2018-06-13T08:51:05.574Z,57.01
2018-06-13T08:53:34.891Z,56.58
2018-06-13T08:56:04.210Z,56.03
2018-06-13T08:58:33.576Z,56.31
2018-06-13T09:01:02.882Z,56.23
2018-06-13T09:03:32.624Z,55.95
2018-06-13T09:06:01.929Z,56.65
2018-06-13T09:08:32.077Z,55.04
2018-06-13T09:11:01.378Z,55.55
2018-06-13T09:13:30.736Z,54.50
2018-06-13T09:16:00.043Z,54.78
2018-06-13T09:18:29.840Z,55.16
2018-06-13T09:20:59.153Z,56.17
2018-06-13T09:23:28.568Z,56.89
2018-06-13T09:25:58.288Z,55.91
2018-06-13T09:28:27.691Z,55.23
2018-06-13T09:30:57.347Z,56.54
2018-06-13T09:33:26.693Z,57.00
2018-06-13T09:35:56.046Z,55.20
2018-06-13T09:38:25.389Z,55.61
2018-06-13T09:40:55.099Z,54.96
2018-06-13T09:43:25.223Z,55.57
2018-06-13T09:46:03.272Z,56.56
2018-06-13T09:48:25.268Z,56.47
2018-06-13T09:50:54.976Z,56.09
2018-06-13T09:53:24.341Z,56.02
2018-06-13T09:55:53.888Z,57.17
2018-06-13T09:58:23.644Z,56.82
2018-06-13T10:00:58.180Z,58.15
2018-06-13T10:03:27.494Z,58.75
2018-06-13T10:05:57.811Z,59.43
2018-06-13T10:08:27.199Z,60.71
2018-06-13T10:10:56.503Z,60.96
2018-06-13T10:13:26.182Z,61.01
2018-06-13T10:15:56.341Z,60.85
2018-06-13T10:18:25.688Z,61.08
2018-06-13T10:20:55.357Z,60.02
2018-06-13T10:23:24.700Z,60.24
2018-06-13T10:25:54.459Z,59.57
2018-06-13T10:28:23.813Z,60.23
2018-06-13T10:30:53.150Z,58.20
2018-06-13T10:33:23.817Z,58.92
2018-06-13T10:35:54.039Z,58.01
2018-06-13T10:38:23.704Z,56.56
2018-06-13T10:40:53.020Z,56.45
2018-06-13T10:43:22.368Z,57.47
2018-06-13T10:45:51.965Z,56.00
2018-06-13T10:48:21.607Z,56.40
2018-06-13T10:50:51.245Z,56.53
2018-06-13T10:53:20.586Z,55.80
2018-06-13T10:55:49.900Z,55.43
2018-06-13T10:58:19.543Z,53.77
2018-06-13T11:00:48.851Z,55.32
2018-06-13T11:03:18.186Z,53.37
2018-06-13T11:05:47.874Z,54.19
2018-06-13T11:08:18.952Z,52.53
2018-06-13T11:10:48.269Z,51.93
2018-06-13T11:13:17.741Z,51.52
2018-06-13T11:15:48.057Z,50.37
2018-06-13T11:18:17.381Z,51.64
2018-06-13T11:20:48.563Z,51.87
2018-06-13T11:23:17.891Z,53.64
2018-06-13T11:25:47.458Z,52.24
2018-06-13T11:28:16.792Z,53.69
2018-06-13T11:30:46.981Z,55.19
2018-06-13T11:33:16.303Z,54.91
2018-06-13T11:35:45.938Z,54.64
2018-06-13T11:38:15.295Z,54.58
2018-06-13T11:40:44.951Z,53.71
2018-06-13T11:43:14.649Z,53.64
2018-06-13T11:45:44.293Z,54.15
2018-06-13T11:48:13.719Z,52.72
2018-06-13T11:50:43.291Z,52.31
2018-06-13T11:53:12.616Z,53.35
2018-06-13T11:55:42.312Z,52.31
2018-06-13T11:58:11.768Z,51.58
2018-06-13T12:00:41.769Z,51.11
2018-06-13T12:03:11.126Z,50.91
2018-06-13T12:05:41.267Z,49.94
2018-06-13T12:08:11.214Z,50.41
2018-06-13T12:10:40.925Z,50.07
2018-06-13T12:13:10.243Z,50.24
2018-06-13T12:15:39.612Z,51.03
2018-06-13T12:18:09.365Z,50.28
2018-06-13T12:20:39.233Z,51.19
2018-06-13T12:23:09.222Z,50.88
2018-06-13T12:25:39.182Z,51.71
2018-06-13T12:28:08.897Z,52.36
2018-06-13T12:30:38.202Z,52.41
2018-06-13T12:33:08.175Z,52.72
2018-06-13T12:35:37.499Z,53.90
2018-06-13T12:38:07.253Z,55.03
2018-06-13T12:40:36.943Z,55.50
2018-06-13T12:43:06.340Z,55.86
2018-06-13T12:45:35.704Z,56.24
2018-06-13T12:48:05.113Z,57.09
2018-06-13T12:50:34.428Z,57.66
2018-06-13T12:53:03.792Z,56.08
2018-06-13T12:55:33.152Z,56.23
2018-06-13T12:58:02.464Z,55.90
2018-06-13T13:00:31.893Z,55.92
2018-06-13T13:03:01.444Z,56.58
2018-06-13T13:05:30.770Z,56.24
2018-06-13T13:08:00.074Z,55.28
2018-06-13T13:10:29.405Z,56.16
2018-06-13T13:12:59.118Z,56.29
2018-06-13T13:15:29.061Z,56.78
2018-06-13T13:17:58.404Z,55.90
2018-06-13T13:20:28.082Z,56.28
2018-06-13T13:22:57.786Z,56.68
2018-06-13T13:25:28.047Z,55.61
2018-06-13T13:27:57.392Z,55.46
2018-06-13T13:30:27.350Z,56.22
2018-06-13T13:32:57.056Z,55.96
2018-06-13T13:35:26.591Z,55.65
2018-06-13T13:37:55.919Z,54.90
2018-06-13T13:40:25.378Z,54.36
2018-06-13T13:42:54.693Z,54.39
2018-06-13T13:45:24.051Z,54.42
2018-06-13T13:47:53.342Z,54.33
2018-06-13T13:50:23.977Z,54.88
2018-06-13T13:52:53.596Z,56.49
2018-06-13T13:55:22.940Z,56.15
2018-06-13T13:57:52.276Z,56.57
2018-06-13T14:00:21.612Z,57.24
2018-06-13T14:02:50.914Z,57.36
2018-06-13T14:05:20.590Z,57.76
2018-06-13T14:07:49.912Z,58.33
2018-06-13T14:10:19.564Z,57.55
2018-06-13T14:12:49.140Z,57.21
2018-06-13T14:15:18.483Z,58.18
2018-06-13T14:17:48.141Z,57.99
2018-06-13T14:20:18.073Z,57.99
2018-06-13T14:22:47.515Z,57.38
2018-06-13T14:25:16.852Z,57.39
2018-06-13T14:27:46.185Z,57.29
2018-06-13T14:30:15.915Z,56.37
2018-06-13T14:32:45.803Z,58.74
2018-06-13T14:35:15.166Z,57.41
2018-06-13T14:37:44.471Z,58.12
2018-06-13T14:40:14.114Z,56.50
2018-06-13T14:42:43.459Z,56.56
2018-06-13T14:45:13.268Z,55.72
2018-06-13T14:47:42.924Z,56.15
2018-06-13T14:50:12.658Z,56.16
2018-06-13T14:52:41.992Z,55.97
2018-06-13T14:55:11.785Z,54.25
2018-06-13T14:57:41.122Z,54.03
2018-06-13T15:00:10.802Z,53.65
2018-06-13T15:02:40.127Z,54.12
2018-06-13T15:05:09.842Z,54.57
2018-06-13T15:07:39.175Z,54.56
2018-06-13T15:10:08.533Z,54.69
2018-06-13T15:12:37.854Z,54.83
2018-06-13T15:15:07.536Z,54.98
2018-06-13T15:17:38.276Z,54.29
2018-06-13T15:20:09.018Z,55.37
2018-06-13T15:22:40.035Z,55.05
2018-06-13T15:25:10.208Z,55.06
2018-06-13T15:27:39.619Z,54.10
2018-06-13T15:30:09.197Z,56.11
2018-06-13T15:32:38.855Z,55.43
2018-06-13T15:35:08.198Z,54.29
2018-06-13T15:37:38.178Z,53.93
2018-06-13T15:40:07.546Z,54.61
2018-06-13T15:42:37.149Z,53.85
2018-06-13T15:45:06.601Z,54.40
2018-06-13T15:47:35.950Z,54.30
2018-06-13T15:50:07.375Z,54.60
2018-06-13T15:52:37.021Z,54.65
2018-06-13T15:55:07.243Z,54.55
2018-06-13T15:57:37.668Z,54.41
2018-06-13T16:00:07.782Z,54.60
2018-06-13T16:02:37.660Z,54.04
2018-06-13T16:05:07.093Z,54.11
2018-06-13T16:07:36.488Z,52.63
2018-06-13T16:10:06.899Z,53.24
2018-06-13T16:12:36.525Z,53.11
2018-06-13T16:15:05.902Z,53.00
2018-06-13T16:17:35.490Z,52.81
2018-06-13T16:20:06.073Z,53.83
2018-06-13T16:22:35.414Z,53.58
2018-06-13T16:25:05.252Z,53.42
2018-06-13T16:27:34.848Z,53.84
2018-06-13T16:30:05.918Z,53.75
2018-06-13T16:32:36.366Z,55.20
2018-06-13T16:35:05.736Z,54.31
2018-06-13T16:37:35.301Z,54.73
2018-06-13T16:40:04.911Z,53.88
2018-06-13T16:42:34.711Z,54.72
2018-06-13T16:45:04.505Z,54.97
2018-06-13T16:47:33.840Z,54.93
2018-06-13T16:50:13.048Z,55.01
2018-06-13T16:52:54.326Z,54.79
2018-06-13T16:55:24.965Z,54.41
2018-06-13T16:57:54.801Z,54.79
2018-06-13T17:00:25.185Z,55.12
2018-06-13T17:02:54.504Z,55.14
2018-06-13T17:05:23.849Z,55.74
2018-06-13T17:07:53.435Z,56.70
2018-06-13T17:10:23.505Z,56.86
2018-06-13T17:12:52.808Z,56.05
2018-06-13T17:15:22.525Z,56.30
2018-06-13T17:17:52.131Z,57.07
2018-06-13T17:20:22.211Z,56.53
2018-06-13T17:22:52.926Z,56.37
2018-06-13T17:25:23.029Z,56.80
2018-06-13T17:27:52.411Z,56.29
2018-06-13T17:30:22.080Z,56.70
2018-06-13T17:32:52.454Z,56.42
2018-06-13T17:35:22.758Z,56.40
2018-06-13T17:37:52.372Z,56.32
2018-06-13T17:40:21.703Z,56.17
2018-06-13T17:42:51.364Z,56.22
2018-06-13T17:45:20.905Z,55.87
2018-06-13T17:47:50.246Z,57.23
2018-06-13T17:50:20.462Z,57.39
2018-06-13T17:52:49.796Z,56.90
2018-06-13T17:55:20.069Z,56.84
2018-06-13T17:57:49.409Z,55.95
2018-06-13T18:00:18.752Z,55.55
2018-06-13T18:02:48.464Z,56.16
2018-06-13T18:05:19.793Z,56.82
2018-06-13T18:07:49.172Z,57.84
2018-06-13T18:10:19.003Z,57.07
2018-06-13T18:12:48.787Z,57.39
2018-06-13T18:15:18.110Z,57.77
2018-06-13T18:17:47.894Z,56.96
2018-06-13T18:20:17.587Z,57.68
2018-06-13T18:22:46.943Z,57.78
2018-06-13T18:25:17.003Z,57.76
2018-06-13T18:27:47.951Z,57.43
2018-06-13T18:30:22.751Z,57.87
2018-06-13T18:32:52.559Z,57.47
2018-06-13T18:35:22.749Z,58.19
2018-06-13T18:37:52.748Z,58.42
2018-06-13T18:40:23.065Z,58.04
2018-06-13T18:42:52.527Z,58.49
2018-06-13T18:45:22.435Z,58.40
2018-06-13T18:47:52.469Z,58.25
2018-06-13T18:50:21.788Z,58.42
2018-06-13T18:52:51.773Z,57.83
2018-06-13T18:55:21.328Z,58.18
2018-06-13T18:57:50.726Z,57.69
2018-06-13T19:00:21.091Z,58.11
2018-06-13T19:02:50.800Z,58.04
2018-06-13T19:05:20.219Z,58.46
2018-06-13T19:07:49.561Z,58.14
2018-06-13T19:10:19.202Z,57.71
2018-06-13T19:12:49.074Z,58.08
2018-06-13T19:15:18.733Z,58.09
2018-06-13T19:17:48.058Z,57.98
2018-06-13T19:20:18.080Z,58.53
2018-06-13T19:22:49.162Z,59.43
2018-06-13T19:25:20.688Z,58.81
2018-06-13T19:27:50.306Z,59.12
2018-06-13T19:30:19.675Z,59.94
2018-06-13T19:32:49.509Z,60.47
2018-06-13T19:35:19.379Z,60.56
2018-06-13T19:37:48.777Z,60.64
2018-06-13T19:40:18.139Z,61.53
2018-06-13T19:42:47.468Z,61.51
2018-06-13T19:45:17.327Z,61.05
2018-06-13T19:47:51.877Z,60.50
2018-06-13T19:50:21.193Z,60.54
2018-06-13T19:52:55.704Z,61.10
2018-06-13T19:55:31.027Z,60.42
2018-06-13T19:58:00.607Z,60.32
2018-06-13T20:00:30.183Z,60.23
2018-06-13T20:03:04.835Z,60.49
2018-06-13T20:05:41.414Z,63.16
2018-06-13T20:08:11.827Z,65.82
2018-06-13T20:10:41.167Z,66.03
2018-06-13T20:13:15.980Z,66.71
2018-06-13T20:15:52.223Z,66.42
2018-06-13T20:18:26.950Z,67.82
2018-06-13T20:20:56.684Z,67.62
2018-06-13T20:23:26.409Z,67.79
2018-06-13T20:26:01.941Z,66.49
2018-06-13T20:28:36.366Z,67.17
2018-06-13T20:31:11.070Z,67.96
2018-06-13T20:33:40.451Z,68.90
2018-06-13T20:36:10.299Z,69.35
2018-06-13T20:38:39.882Z,69.89
2018-06-13T20:41:09.272Z,69.81
2018-06-13T20:43:39.207Z,70.49
2018-06-13T20:46:08.548Z,70.48
2018-06-13T20:48:37.879Z,70.63
2018-06-13T20:51:07.276Z,70.45
2018-06-13T20:53:36.608Z,69.92
2018-06-13T20:56:06.364Z,69.90
2018-06-13T20:58:35.957Z,69.87
2018-06-13T21:01:05.562Z,70.29
2018-06-13T21:03:35.155Z,70.45
2018-06-13T21:06:04.519Z,70.83
2018-06-13T21:08:33.817Z,70.48
2018-06-13T21:11:03.161Z,69.91
2018-06-13T21:13:32.486Z,69.99
2018-06-13T21:16:02.745Z,69.34
2018-06-13T21:18:32.512Z,68.73
2018-06-13T21:21:01.842Z,67.78
2018-06-13T21:23:31.581Z,67.58
2018-06-13T21:26:01.143Z,68.24
2018-06-13T21:28:31.453Z,68.15
2018-06-13T21:31:00.791Z,67.99
2018-06-13T21:33:31.285Z,67.96
2018-06-13T21:36:01.983Z,68.36
2018-06-13T21:38:31.659Z,68.54
2018-06-13T21:41:01.023Z,68.67
2018-06-13T21:43:31.439Z,69.17
2018-06-13T21:46:01.905Z,69.32
2018-06-13T21:48:31.232Z,69.67
2018-06-13T21:51:00.954Z,69.57
2018-06-13T21:53:30.640Z,69.42
2018-06-13T21:56:00.434Z,70.32
2018-06-13T21:58:29.771Z,71.00
2018-06-13T22:00:59.507Z,71.52
2018-06-13T22:03:28.818Z,71.77
2018-06-13T22:05:58.178Z,72.31
2018-06-13T22:08:27.497Z,72.46
2018-06-13T22:10:57.240Z,72.07
2018-06-13T22:13:26.635Z,72.40
2018-06-13T22:15:56.461Z,72.48
2018-06-13T22:18:25.941Z,72.42
2018-06-13T22:20:55.511Z,72.44
2018-06-13T22:23:24.824Z,71.99
2018-06-13T22:25:54.175Z,71.64
2018-06-13T22:28:24.627Z,71.16
2018-06-13T22:30:53.953Z,70.95
2018-06-13T22:33:24.092Z,70.41
2018-06-13T22:35:54.321Z,70.32
2018-06-13T22:38:24.103Z,69.97
2018-06-13T22:40:53.425Z,70.42
2018-06-13T22:43:22.791Z,70.45
2018-06-13T22:45:52.133Z,70.17
2018-06-13T22:48:21.453Z,70.27
2018-06-13T22:50:51.609Z,69.35
2018-06-13T22:53:21.340Z,68.69
2018-06-13T22:55:51.059Z,68.82
2018-06-13T22:58:20.816Z,69.20
2018-06-13T23:01:06.525Z,68.99
2018-06-13T23:03:35.828Z,68.69
2018-06-13T23:06:08.379Z,68.57
2018-06-13T23:08:38.491Z,68.40
2018-06-13T23:11:08.560Z,69.51
2018-06-13T23:13:37.849Z,68.92
2018-06-13T23:16:07.160Z,69.07
2018-06-13T23:18:36.654Z,68.89
2018-06-13T23:21:05.970Z,68.87
2018-06-13T23:23:35.616Z,67.99
2018-06-13T23:26:04.990Z,67.19
2018-06-13T23:28:34.333Z,66.13
2018-06-13T23:31:03.678Z,66.02
2018-06-13T23:33:33.201Z,66.07
2018-06-13T23:36:02.776Z,66.89
2018-06-13T23:38:32.114Z,68.00
2018-06-13T23:41:01.440Z,68.84
2018-06-13T23:43:31.263Z,69.26
2018-06-13T23:46:01.004Z,70.02
2018-06-13T23:48:30.303Z,70.20
2018-06-13T23:50:59.646Z,70.37
2018-06-13T23:53:29.275Z,70.77
2018-06-13T23:55:58.579Z,71.37
2018-06-13T23:58:27.919Z,69.81
